Time;durP1;ratioP1;P1;durP2;ratioP2;P2;SDS_P1;SDS_P2;PMS_P1;PMS_P2;Temp;Humidity;BMP_temperature;BMP_pressure;BME280_temperature;BME280_humidity;BME280_pressure;Samples;Min_cycle;Max_cycle;Signal;HPM_P1;HPM_P2
2023/07/27 00:00:05;;;;;;;19.63;7.95;;;;;;;13.96;100.00;100853.66;5064116;28;20029;-71
2023/07/27 00:02:30;;;;;;;19.92;8.38;;;;;;;13.95;100.00;100852.78;5066069;28;20052;-66
2023/07/27 00:04:56;;;;;;;18.90;8.05;;;;;;;13.89;100.00;100844.88;5063661;28;20095;-66
2023/07/27 00:07:21;;;;;;;21.50;8.43;;;;;;;13.81;100.00;100844.06;5064871;28;20033;-66
2023/07/27 00:09:46;;;;;;;21.23;8.65;;;;;;;13.91;100.00;100845.72;5066329;28;20020;-68
2023/07/27 00:12:12;;;;;;;19.95;8.50;;;;;;;13.86;100.00;100844.91;5062070;28;20033;-65
2023/07/27 00:14:37;;;;;;;19.65;8.57;;;;;;;13.80;100.00;100847.59;5066948;28;20020;-65
2023/07/27 00:17:03;;;;;;;20.38;8.27;;;;;;;13.81;100.00;100844.06;5063703;28;20068;-65
2023/07/27 00:19:28;;;;;;;20.63;8.65;;;;;;;13.77;100.00;100843.22;5065645;28;20028;-67
2023/07/27 00:21:53;;;;;;;20.45;8.45;;;;;;;13.73;100.00;100844.13;5065193;28;20085;-66
2023/07/27 00:24:19;;;;;;;20.90;8.73;;;;;;;13.78;100.00;100849.41;5064281;28;20037;-66
2023/07/27 00:26:44;;;;;;;20.42;8.50;;;;;;;13.70;100.00;100843.25;5066239;28;20032;-66
2023/07/27 00:29:09;;;;;;;20.77;8.80;;;;;;;13.71;100.00;100834.41;5063176;28;20032;-67
2023/07/27 00:31:35;;;;;;;20.15;8.25;;;;;;;13.63;100.00;100838.88;5066337;28;20039;-65
2023/07/27 00:34:00;;;;;;;20.02;8.43;;;;;;;13.69;100.00;100841.50;5063883;28;20029;-66
2023/07/27 00:36:26;;;;;;;20.60;8.32;;;;;;;13.62;100.00;100837.16;5064846;28;20476;-67
2023/07/27 00:38:51;;;;;;;20.25;8.50;;;;;;;13.60;100.00;100837.13;5064912;28;20533;-66
2023/07/27 00:41:17;;;;;;;21.52;8.73;;;;;;;13.56;100.00;100833.63;5063302;28;20063;-66
2023/07/27 00:43:43;;;;;;;20.50;8.40;;;;;;;13.57;100.00;100829.19;5066300;28;20020;-66
2023/07/27 00:46:08;;;;;;;21.25;8.75;;;;;;;13.57;100.00;100829.19;5062807;28;20039;-66
2023/07/27 00:48:34;;;;;;;21.15;8.93;;;;;;;13.55;100.00;100825.69;5065969;28;20048;-70
2023/07/27 00:51:00;;;;;;;22.50;9.00;;;;;;;13.59;100.00;100822.97;5062577;28;20064;-66
2023/07/27 00:53:26;;;;;;;22.15;9.77;;;;;;;13.57;100.00;100814.16;5064510;28;20357;-66
2023/07/27 00:55:51;;;;;;;21.02;8.98;;;;;;;13.51;100.00;100811.53;5064943;28;20111;-67
2023/07/27 00:58:17;;;;;;;23.23;9.40;;;;;;;13.48;100.00;100803.59;5062951;28;20431;-67
2023/07/27 01:00:43;;;;;;;21.75;9.45;;;;;;;13.46;100.00;100809.84;5065849;28;20029;-66
2023/07/27 01:03:09;;;;;;;21.98;9.57;;;;;;;13.49;100.00;100799.19;5058403;28;20045;-66
2023/07/27 01:05:35;;;;;;;21.10;9.50;;;;;;;13.46;100.00;100792.13;5065282;28;20033;-66
2023/07/27 01:08:00;;;;;;;20.92;9.55;;;;;;;13.37;100.00;100786.91;5063239;28;20056;-67
2023/07/27 01:11:07;;;;;;;22.15;10.05;;;;;;;13.32;100.00;100786.00;5064269;28;20115;-66
2023/07/27 01:14:09;;;;;;;22.70;10.52;;;;;;;13.42;100.00;100782.41;5063460;28;20539;-68
2023/07/27 01:16:51;;;;;;;22.42;10.40;;;;;;;13.33;100.00;100777.16;5064353;28;20036;-66
2023/07/27 01:19:28;;;;;;;23.30;10.70;;;;;;;13.46;100.00;100773.53;5059634;28;20112;-66
2023/07/27 01:22:31;;;;;;;22.80;11.00;;;;;;;13.51;100.00;100770.84;5063859;28;20033;-67
2023/07/27 01:25:22;;;;;;;23.67;10.82;;;;;;;13.60;100.00;100771.63;5062626;28;20033;-66
2023/07/27 01:28:00;;;;;;;24.25;11.18;;;;;;;13.64;100.00;100768.94;5060110;28;20079;-66
2023/07/27 01:30:28;;;;;;;22.77;11.10;;;;;;;13.46;100.00;100767.34;5063585;28;20076;-66
2023/07/27 01:33:03;;;;;;;23.20;11.45;;;;;;;13.57;100.00;100765.47;5063233;28;20471;-70
2023/07/27 01:35:38;;;;;;;23.38;11.25;;;;;;;13.47;100.00;100759.38;5063268;28;20408;-67
2023/07/27 01:38:04;;;;;;;23.33;11.85;;;;;;;13.56;100.00;100758.41;5064594;28;20082;-67
2023/07/27 01:40:33;;;;;;;24.52;12.32;;;;;;;13.53;100.00;100755.78;5062632;28;20037;-66
2023/07/27 01:43:01;;;;;;;24.55;12.43;;;;;;;13.63;100.00;100749.50;5063455;28;20025;-68
2023/07/27 01:45:26;;;;;;;24.15;12.50;;;;;;;13.72;100.00;100748.50;5063334;28;20442;-66
2023/07/27 01:47:53;;;;;;;24.58;12.75;;;;;;;13.70;100.00;100744.97;5062916;28;20060;-67
2023/07/27 01:50:19;;;;;;;24.20;12.43;;;;;;;13.60;100.00;100745.09;5064332;28;20371;-67
2023/07/27 01:52:46;;;;;;;23.80;12.57;;;;;;;13.64;100.00;100739.72;5061788;28;20037;-66
2023/07/27 01:55:15;;;;;;;25.30;13.18;;;;;;;13.83;100.00;100735.09;5065181;28;20066;-66
2023/07/27 01:57:42;;;;;;;24.65;12.95;;;;;;;13.85;100.00;100742.19;5057424;28;20072;-65
2023/07/27 02:00:09;;;;;;;24.67;12.80;;;;;;;13.90;100.00;100727.03;5063465;28;20028;-65
2023/07/27 02:02:35;;;;;;;24.38;12.32;;;;;;;13.96;100.00;100728.75;5061741;28;20052;-65
2023/07/27 02:05:01;;;;;;;24.45;12.88;;;;;;;14.01;100.00;100724.28;5063729;28;20468;-65
2023/07/27 02:07:26;;;;;;;24.67;12.20;;;;;;;13.97;100.00;100713.72;5062950;28;20033;-66
2023/07/27 02:09:52;;;;;;;24.70;12.10;;;;;;;13.91;100.00;100702.25;5062503;28;20475;-66
2023/07/27 02:12:26;;;;;;;23.38;11.93;;;;;;;13.91;100.00;100712.88;5064375;28;20479;-66
2023/07/27 02:15:07;;;;;;;23.63;11.93;;;;;;;13.82;100.00;100691.72;5062156;28;20025;-65
2023/07/27 02:17:39;;;;;;;24.33;12.10;;;;;;;13.94;100.00;100694.22;5061904;28;20024;-67
2023/07/27 02:20:10;;;;;;;;;;;;;;;13.86;100.00;100692.56;5064475;28;20020;-65
2023/07/27 02:22:37;;;;;;;24.02;11.77;;;;;;;13.88;100.00;100686.34;5061430;28;20333;-66
2023/07/27 02:25:03;;;;;;;24.40;11.80;;;;;;;13.86;100.00;100682.84;5063474;28;20029;-66
2023/07/27 02:27:29;;;;;;;24.55;12.20;;;;;;;13.85;100.00;100670.44;5062574;28;20111;-66
2023/07/27 02:29:54;;;;;;;25.13;12.93;;;;;;;13.87;100.00;100675.72;5062393;28;20036;-65
2023/07/27 02:32:19;;;;;;;23.88;12.65;;;;;;;13.89;100.00;100664.19;5063498;28;20518;-66
2023/07/27 02:34:45;;;;;;;25.42;12.55;;;;;;;13.85;100.00;100666.88;5061207;28;20116;-65
2023/07/27 02:37:10;;;;;;;25.00;12.55;;;;;;;13.91;100.00;100657.06;5064242;28;20034;-66
2023/07/27 02:39:35;;;;;;;24.55;12.23;;;;;;;13.86;100.00;100656.25;5061145;28;20396;-66
2023/07/27 02:42:01;;;;;;;23.80;12.52;;;;;;;13.86;100.00;100650.94;5063619;28;20037;-65
2023/07/27 02:44:26;;;;;;;25.00;12.50;;;;;;;13.85;100.00;100640.31;5062413;28;20025;-67
2023/07/27 02:46:51;;;;;;;23.73;12.02;;;;;;;13.77;100.00;100638.66;5061969;28;20112;-65
2023/07/27 02:49:17;;;;;;;25.20;12.52;;;;;;;13.80;100.00;100637.72;5064144;28;20063;-67
2023/07/27 02:51:42;;;;;;;25.15;12.90;;;;;;;13.71;100.00;100630.75;5060729;28;20029;-66
2023/07/27 02:54:07;;;;;;;24.67;12.63;;;;;;;13.64;100.00;100633.50;5064134;28;20029;-65
2023/07/27 02:56:33;;;;;;;24.77;12.50;;;;;;;13.72;100.00;100636.94;5063861;28;20025;-68
2023/07/27 02:58:58;;;;;;;24.48;13.23;;;;;;;13.69;100.00;100621.03;5066554;28;20391;-65
2023/07/27 03:01:23;;;;;;;25.85;12.95;;;;;;;13.72;100.00;100626.31;5067107;28;20546;-65
2023/07/27 03:03:49;;;;;;;25.75;13.55;;;;;;;13.71;100.00;100621.91;5065117;28;20060;-67
2023/07/27 03:06:15;;;;;;;24.95;12.98;;;;;;;13.73;100.00;100620.09;5068187;28;20028;-65
2023/07/27 03:08:40;;;;;;;25.23;13.30;;;;;;;13.70;100.00;100621.03;5064654;28;20487;-65
2023/07/27 03:11:06;;;;;;;25.17;12.50;;;;;;;13.75;100.00;100620.97;5067402;28;20037;-65
2023/07/27 03:13:32;;;;;;;25.05;12.75;;;;;;;13.71;100.00;100608.63;5065505;28;20025;-65
2023/07/27 03:15:59;;;;;;;25.00;12.40;;;;;;;13.74;100.00;100606.78;5066330;28;20051;-66
2023/07/27 03:18:27;;;;;;;25.23;12.50;;;;;;;13.62;100.00;100596.34;5066261;28;20032;-65
2023/07/27 03:20:52;;;;;;;24.27;12.20;;;;;;;13.65;100.00;100592.75;5065336;28;20476;-67
2023/07/27 03:23:18;;;;;;;24.50;12.38;;;;;;;13.67;100.00;100585.66;5067378;28;20059;-65
2023/07/27 03:25:43;;;;;;;23.90;12.07;;;;;;;13.66;100.00;100581.22;5064323;28;20040;-66
2023/07/27 03:28:09;;;;;;;23.88;11.65;;;;;;;13.63;100.00;100571.53;5067435;28;20035;-65
2023/07/27 03:30:35;;;;;;;23.90;12.07;;;;;;;13.64;100.00;100567.09;5065075;28;20033;-66
2023/07/27 03:33:02;;;;;;;24.52;12.32;;;;;;;13.63;100.00;100558.25;5066285;28;20484;-66
2023/07/27 03:35:27;;;;;;;23.52;12.10;;;;;;;13.64;100.00;100546.72;5065636;28;20031;-65
2023/07/27 03:37:53;;;;;;;24.30;12.30;;;;;;;13.64;100.00;100533.44;5065223;28;20112;-66
2023/07/27 03:40:19;;;;;;;24.92;12.27;;;;;;;13.63;100.00;100536.13;5066697;28;20025;-66
2023/07/27 03:42:45;;;;;;;24.00;11.90;;;;;;;13.62;100.00;100521.09;5064123;28;20052;-65
2023/07/27 03:45:14;;;;;;;23.38;12.38;;;;;;;13.63;100.00;100515.75;5067290;28;20476;-66
2023/07/27 03:47:41;;;;;;;24.35;12.43;;;;;;;13.62;100.00;100513.13;5059778;28;20025;-65
2023/07/27 03:50:07;;;;;;;24.30;12.45;;;;;;;13.63;100.00;100510.44;5067045;28;20082;-65
2023/07/27 03:52:32;;;;;;;24.45;12.52;;;;;;;13.63;100.00;100504.25;5064886;28;20032;-65
2023/07/27 03:54:58;;;;;;;24.75;12.95;;;;;;;13.69;100.00;100507.72;5065543;28;20025;-71
2023/07/27 03:57:23;;;;;;;24.45;11.85;;;;;;;13.67;100.00;100505.97;5065994;28;20040;-66
2023/07/27 03:59:49;;;;;;;24.63;12.13;;;;;;;13.66;100.00;100501.53;5064099;28;20025;-67
2023/07/27 04:02:14;;;;;;;24.73;11.75;;;;;;;13.57;100.00;100503.44;5066980;28;20391;-65
2023/07/27 04:04:39;;;;;;;24.95;11.95;;;;;;;13.61;100.00;100496.28;5062850;28;20033;-66
2023/07/27 04:07:05;;;;;;;26.15;12.40;;;;;;;13.65;100.00;100491.84;5064891;28;20402;-66
2023/07/27 04:09:30;;;;;;;24.60;12.38;;;;;;;13.70;100.00;100500.59;5063840;28;20121;-66
2023/07/27 04:11:55;;;;;;;24.80;12.07;;;;;;;13.65;100.00;100503.31;5064040;28;20039;-65
2023/07/27 04:14:21;;;;;;;23.15;11.75;;;;;;;13.55;100.00;100502.56;5065038;28;20585;-65
2023/07/27 04:16:46;;;;;;;23.73;11.90;;;;;;;13.57;100.00;100500.78;5062299;28;20029;-65
2023/07/27 04:19:11;;;;;;;22.75;11.30;;;;;;;13.49;100.00;100492.03;5065924;28;20483;-65
2023/07/27 04:21:37;;;;;;;23.20;10.98;;;;;;;13.52;100.00;100492.00;5061356;28;20468;-65
2023/07/27 04:24:02;;;;;;;22.45;10.88;;;;;;;13.56;100.00;100483.09;5064359;28;20116;-65
2023/07/27 04:26:29;;;;;;;23.40;10.55;;;;;;;13.56;100.00;100482.22;5063907;28;20502;-65
2023/07/27 04:28:54;;;;;;;23.50;10.95;;;;;;;13.58;100.00;100475.97;5063228;28;20029;-65
2023/07/27 04:31:19;;;;;;;22.60;10.73;;;;;;;13.54;100.00;100470.72;5065113;28;20028;-65
2023/07/27 04:33:45;;;;;;;23.60;11.07;;;;;;;13.55;100.00;100465.38;5062207;28;20082;-66
2023/07/27 04:36:10;;;;;;;21.92;10.18;;;;;;;13.55;100.00;100465.38;5057980;28;20028;-65
2023/07/27 04:38:35;;;;;;;21.83;10.20;;;;;;;13.55;100.00;100460.06;5064658;28;20040;-65
2023/07/27 04:41:01;;;;;;;23.35;10.88;;;;;;;13.60;100.00;100466.22;5063053;28;20032;-64
2023/07/27 04:43:26;;;;;;;21.40;9.52;;;;;;;13.54;100.00;100468.06;5062205;28;20104;-66
2023/07/27 04:45:51;;;;;;;22.17;10.23;;;;;;;13.53;100.00;100456.59;5064509;28;20028;-65
2023/07/27 04:48:17;;;;;;;22.25;10.35;;;;;;;13.54;100.00;100446.81;5061811;28;20025;-64
2023/07/27 04:50:42;;;;;;;22.42;10.77;;;;;;;13.57;100.00;100446.78;5065103;28;20467;-65
2023/07/27 04:53:07;;;;;;;22.20;10.82;;;;;;;13.60;100.00;100444.06;5062182;28;20435;-64
2023/07/27 04:55:33;;;;;;;23.27;10.95;;;;;;;13.60;100.00;100442.31;5063325;28;20481;-70
2023/07/27 04:57:59;;;;;;;22.00;10.68;;;;;;;13.62;100.00;100446.75;5051860;28;20029;-71
2023/07/27 05:00:24;;;;;;;22.67;10.30;;;;;;;13.62;100.00;100441.44;5055397;28;20029;-70
2023/07/27 05:02:50;;;;;;;22.17;11.15;;;;;;;13.59;100.00;100439.69;5017450;28;1090000;-70
2023/07/27 05:05:15;;;;;;;21.88;10.88;;;;;;;13.60;100.00;100431.69;5056248;28;20029;-68
2023/07/27 05:07:40;;;;;;;22.80;11.13;;;;;;;13.64;100.00;100437.81;5058004;28;20475;-69
2023/07/27 05:10:06;;;;;;;22.60;10.88;;;;;;;13.66;100.00;100436.03;5056753;28;20056;-71
2023/07/27 05:12:32;;;;;;;22.70;11.18;;;;;;;13.66;100.00;100429.84;5056418;28;20029;-68
2023/07/27 05:14:58;;;;;;;21.90;10.68;;;;;;;13.69;100.00;100427.13;5057908;28;20021;-70
2023/07/27 05:17:24;;;;;;;23.38;10.55;;;;;;;13.69;100.00;100419.16;5057037;28;20029;-68
2023/07/27 05:19:49;;;;;;;21.85;11.13;;;;;;;13.66;100.00;100414.78;5063023;28;20035;-70
2023/07/27 05:22:14;;;;;;;20.90;10.70;;;;;;;13.72;100.00;100408.50;5061956;28;20127;-67
2023/07/27 05:24:40;;;;;;;22.83;11.10;;;;;;;13.78;100.00;100413.72;5064965;28;20475;-69
2023/07/27 05:27:05;;;;;;;21.67;10.80;;;;;;;13.74;100.00;100406.69;5062822;28;20495;-71
2023/07/27 05:29:31;;;;;;;23.52;11.93;;;;;;;13.80;100.00;100403.94;5063656;28;20404;-71
2023/07/27 05:31:57;;;;;;;24.00;12.25;;;;;;;13.83;100.00;100398.56;5064094;28;20111;-65
2023/07/27 05:34:23;;;;;;;23.73;12.18;;;;;;;13.87;100.00;100402.94;5063384;28;20029;-71
2023/07/27 05:36:48;;;;;;;23.63;12.43;;;;;;;13.93;100.00;100397.50;5058155;28;20513;-73
2023/07/27 05:39:13;;;;;;;22.08;11.55;;;;;;;13.92;100.00;100400.19;5061713;28;20388;-71
2023/07/27 05:41:39;;;;;;;22.27;11.15;;;;;;;13.92;100.00;100403.75;5064161;28;20057;-73
2023/07/27 05:44:04;;;;;;;21.70;10.30;;;;;;;13.90;100.00;100402.88;5063421;28;20056;-73
2023/07/27 05:46:29;;;;;;;20.38;10.20;;;;;;;13.93;100.00;100396.66;5062717;28;20036;-73
2023/07/27 05:48:55;;;;;;;20.90;10.40;;;;;;;13.97;100.00;100397.50;5064437;28;20099;-73
2023/07/27 05:51:20;;;;;;;20.52;10.32;;;;;;;14.01;100.00;100388.53;5061314;28;20031;-65
2023/07/27 05:53:46;;;;;;;22.70;11.25;;;;;;;14.08;100.00;100384.88;5064964;28;20029;-69
2023/07/27 05:56:11;;;;;;;21.35;10.68;;;;;;;14.13;100.00;100389.22;5062241;28;20360;-65
2023/07/27 05:58:37;;;;;;;21.23;10.60;;;;;;;14.14;100.00;100387.44;5063310;28;20041;-65
2023/07/27 06:01:03;;;;;;;20.73;9.90;;;;;;;14.15;100.00;100397.16;5063697;28;20029;-72
2023/07/27 06:03:30;;;;;;;21.20;10.32;;;;;;;14.18;100.00;100385.59;5061847;28;20037;-64
2023/07/27 06:05:55;;;;;;;20.50;10.27;;;;;;;14.19;100.00;100387.38;5063924;28;20113;-65
2023/07/27 06:08:21;;;;;;;20.83;10.48;;;;;;;14.21;100.00;100386.44;5064112;28;20107;-64
2023/07/27 06:10:46;;;;;;;21.20;11.00;;;;;;;14.28;100.00;100377.44;5061132;28;20059;-64
2023/07/27 06:13:12;;;;;;;19.90;9.45;;;;;;;14.29;100.00;100373.88;5064321;28;20040;-72
2023/07/27 06:15:37;;;;;;;21.40;10.20;;;;;;;14.30;100.00;100386.25;5061814;28;20082;-74
2023/07/27 06:18:04;;;;;;;20.80;9.73;;;;;;;14.33;100.00;100380.00;5063085;28;20082;-73
2023/07/27 06:20:29;;;;;;;19.95;8.73;;;;;;;14.37;100.00;100380.81;5062705;28;20025;-69
2023/07/27 06:22:54;;;;;;;20.17;9.13;;;;;;;14.39;100.00;100379.03;5061880;28;20036;-70
2023/07/27 06:25:20;;;;;;;19.35;8.85;;;;;;;14.40;100.00;100372.78;5064022;28;20033;-66
2023/07/27 06:27:45;;;;;;;19.92;9.18;;;;;;;14.46;100.00;100368.25;5061066;28;20029;-70
2023/07/27 06:30:12;;;;;;;19.52;8.40;;;;;;;14.55;100.00;100359.19;5063719;28;20032;-70
2023/07/27 06:32:38;;;;;;;18.67;8.02;;;;;;;14.60;100.00;100362.63;5061498;28;20036;-70
2023/07/27 06:35:03;;;;;;;19.55;8.60;;;;;;;14.63;100.00;100367.94;5062999;28;20028;-74
2023/07/27 06:37:29;;;;;;;19.10;8.23;;;;;;;14.66;100.00;100364.34;5061929;28;20038;-71
2023/07/27 06:39:54;;;;;;;19.45;8.55;;;;;;;14.71;100.00;100361.56;5061993;28;20120;-71
2023/07/27 06:42:19;;;;;;;18.98;8.40;;;;;;;14.74;100.00;100361.53;5063308;28;20097;-72
2023/07/27 06:44:45;;;;;;;18.98;7.80;;;;;;;14.74;100.00;100359.75;5058801;28;20033;-70
2023/07/27 06:47:10;;;;;;;19.45;8.05;;;;;;;14.78;100.00;100355.22;5054804;28;20499;-70
2023/07/27 06:49:36;;;;;;;19.52;7.97;;;;;;;14.80;100.00;100361.41;5064533;28;20466;-72
2023/07/27 06:52:01;;;;;;;18.95;7.65;;;;;;;14.79;100.00;100362.31;5060871;28;20456;-68
2023/07/27 06:54:26;;;;;;;18.75;8.07;;;;;;;14.81;100.00;100357.84;5061686;28;20025;-69
2023/07/27 06:56:52;;;;;;;18.40;7.82;;;;;;;14.85;100.00;100366.63;5062279;28;20021;-68
2023/07/27 06:59:17;;;;;;;18.63;7.90;;;;;;;14.87;100.00;100371.00;5061589;28;20033;-71
2023/07/27 07:01:43;;;;;;;20.00;8.35;;;;;;;14.89;100.00;100357.66;5063298;28;20029;-68
2023/07/27 07:04:08;;;;;;;19.13;7.88;;;;;;;14.92;100.00;100357.59;5060491;28;20095;-64
2023/07/27 07:06:34;;;;;;;18.88;7.90;;;;;;;14.94;100.00;100363.75;5062611;28;20029;-66
2023/07/27 07:08:59;;;;;;;18.98;8.00;;;;;;;14.96;100.00;100368.16;5061661;28;20048;-66
2023/07/27 07:11:24;;;;;;;19.23;7.80;;;;;;;15.02;100.00;100367.13;5057414;28;20055;-71
2023/07/27 07:13:50;;;;;;;19.30;8.10;;;;;;;15.06;100.00;100365.31;5061588;28;20029;-66
2023/07/27 07:16:15;;;;;;;19.05;8.05;;;;;;;15.07;100.00;100367.94;5063554;28;20020;-65
2023/07/27 07:18:41;;;;;;;19.15;8.43;;;;;;;15.09;100.00;100359.91;5060559;28;20040;-67
2023/07/27 07:21:06;;;;;;;19.63;8.50;;;;;;;15.13;100.00;100358.91;5063516;28;20452;-71
2023/07/27 07:23:32;;;;;;;19.60;8.70;;;;;;;15.15;100.00;100365.97;5054676;28;20074;-65
2023/07/27 07:25:57;;;;;;;20.00;9.05;;;;;;;15.16;100.00;100374.84;5055991;28;20044;-66
2023/07/27 07:28:23;;;;;;;19.80;9.20;;;;;;;15.22;100.00;100364.03;5054925;28;20025;-66
2023/07/27 07:30:48;;;;;;;20.55;9.60;;;;;;;15.28;100.00;100371.88;5056010;28;20071;-65
2023/07/27 07:33:14;;;;;;;20.25;9.65;;;;;;;15.33;100.00;100363.78;5060043;28;20044;-65
2023/07/27 07:35:40;;;;;;;19.70;8.93;;;;;;;15.36;100.00;100362.84;5063347;28;20111;-65
2023/07/27 07:38:06;;;;;;;20.50;9.52;;;;;;;15.49;100.00;100353.66;5060304;28;20120;-65
2023/07/27 07:40:32;;;;;;;19.55;8.50;;;;;;;15.56;100.00;100355.25;5063075;28;20528;-65
2023/07/27 07:42:57;;;;;;;19.30;7.65;;;;;;;15.59;100.00;100349.84;5064317;28;20036;-65
2023/07/27 07:45:22;;;;;;;18.45;7.57;;;;;;;15.56;100.00;100343.75;5064282;28;20025;-65
2023/07/27 07:47:48;;;;;;;17.80;7.10;;;;;;;15.59;100.00;100355.19;5066369;28;20439;-67
2023/07/27 07:50:13;;;;;;;17.63;7.25;;;;;;;15.52;100.00;100353.56;5064319;28;20025;-65
2023/07/27 07:52:39;;;;;;;18.98;7.47;;;;;;;15.45;100.00;100346.66;5067114;28;20039;-65
2023/07/27 07:55:06;;;;;;;18.20;7.43;;;;;;;15.47;100.00;100352.84;5063961;28;20044;-66
2023/07/27 07:57:32;;;;;;;18.15;6.97;;;;;;;15.54;100.00;100345.56;5066692;28;20062;-68
2023/07/27 07:59:57;;;;;;;16.77;6.05;;;;;;;15.60;100.00;100359.59;5064622;28;20040;-67
2023/07/27 08:02:23;;;;;;;17.45;5.97;;;;;;;15.66;100.00;100350.59;5065315;28;20099;-66
2023/07/27 08:04:48;;;;;;;16.13;5.60;;;;;;;15.63;100.00;100346.22;5066010;28;20044;-66
2023/07/27 08:07:13;;;;;;;14.20;5.22;;;;;;;15.63;100.00;100354.19;5063838;28;20381;-66
2023/07/27 08:09:39;;;;;;;15.35;5.38;;;;;;;15.68;100.00;100343.44;5066908;28;20016;-66
2023/07/27 08:12:04;;;;;;;14.32;5.60;;;;;;;15.69;100.00;100354.03;5063853;28;20064;-67
2023/07/27 08:14:31;;;;;;;16.63;5.70;;;;;;;15.65;100.00;100349.72;5065870;28;20025;-65
2023/07/27 08:16:56;;;;;;;16.52;6.00;;;;;;;15.72;100.00;100352.25;5064787;28;20029;-71
2023/07/27 08:19:22;;;;;;;16.92;6.15;;;;;;;15.77;100.00;100348.56;5064817;28;20033;-66
2023/07/27 08:21:47;;;;;;;16.90;6.30;;;;;;;15.85;100.00;100348.38;5064709;28;20104;-65
2023/07/27 08:24:12;;;;;;;17.30;6.70;;;;;;;15.93;100.00;100345.50;5063288;28;20043;-72
2023/07/27 08:26:38;;;;;;;17.80;6.80;;;;;;;16.00;100.00;100340.00;5067088;28;20025;-67
2023/07/27 08:29:03;;;;;;;17.92;6.90;;;;;;;16.07;100.00;100340.69;5063420;28;20511;-65
2023/07/27 08:31:29;;;;;;;18.30;7.38;;;;;;;16.07;100.00;100335.38;5065619;28;20037;-66
2023/07/27 08:33:55;;;;;;;18.55;7.43;;;;;;;16.06;100.00;100340.75;5064628;28;20043;-66
2023/07/27 08:36:20;;;;;;;19.75;8.43;;;;;;;16.01;100.00;100344.41;5064026;28;20115;-66
2023/07/27 08:38:45;;;;;;;18.90;8.13;;;;;;;16.02;100.00;100343.50;5065915;28;20169;-65
2023/07/27 08:41:11;;;;;;;19.13;8.00;;;;;;;16.14;100.00;100344.09;5062871;28;20036;-66
2023/07/27 08:43:36;;;;;;;18.67;7.53;;;;;;;16.11;100.00;100342.38;5066310;28;20028;-67
2023/07/27 08:46:03;;;;;;;17.85;6.82;;;;;;;16.11;100.00;100339.72;5063443;28;20044;-66
2023/07/27 08:48:29;;;;;;;17.05;6.72;;;;;;;16.15;100.00;100338.72;5064722;28;20051;-69
2023/07/27 08:50:57;;;;;;;15.80;6.13;;;;;;;16.14;100.00;100346.75;5064365;28;20040;-66
2023/07/27 08:53:22;;;;;;;16.60;6.20;;;;;;;16.19;100.00;100335.06;5063076;28;20048;-66
2023/07/27 08:55:48;;;;;;;15.98;6.10;;;;;;;16.20;100.00;100333.25;5065237;28;20024;-68
2023/07/27 08:58:14;;;;;;;17.08;6.40;;;;;;;16.27;100.00;100345.50;5062649;28;20094;-70
2023/07/27 09:00:39;;;;;;;17.02;6.22;;;;;;;16.13;100.00;100342.34;5066168;28;20021;-67
2023/07/27 09:03:07;;;;;;;17.63;6.40;;;;;;;16.10;100.00;100339.75;5062470;28;20136;-73
2023/07/27 09:05:42;;;;;;;14.88;5.85;;;;;;;16.07;100.00;100345.16;5065175;28;20375;-67
2023/07/27 09:08:10;;;;;;;15.95;6.13;;;;;;;16.00;100.00;100339.09;5062544;28;20100;-71
2023/07/27 09:10:39;;;;;;;16.35;6.15;;;;;;;16.11;100.00;100342.38;5063483;28;20082;-66
2023/07/27 09:13:05;;;;;;;16.42;6.20;;;;;;;16.12;100.00;100343.25;5064018;28;20441;-67
2023/07/27 09:15:33;;;;;;;15.80;5.95;;;;;;;16.14;100.00;100323.63;5063872;28;20056;-67
2023/07/27 09:18:01;;;;;;;15.25;5.43;;;;;;;16.12;100.00;100341.47;5063176;28;20082;-71
2023/07/27 09:20:30;;;;;;;15.70;5.50;;;;;;;16.16;100.00;100344.91;5064876;28;20036;-69
2023/07/27 09:22:59;;;;;;;12.95;5.15;;;;;;;16.24;100.00;100340.25;5062463;28;20045;-66
2023/07/27 09:25:24;;;;;;;13.05;4.95;;;;;;;16.35;100.00;100340.84;5065282;28;20056;-73
2023/07/27 09:27:54;;;;;;;15.00;5.20;;;;;;;16.41;100.00;100330.91;5062300;28;20060;-69
2023/07/27 09:30:20;;;;;;;15.55;5.25;;;;;;;16.37;100.00;100325.66;5058231;28;20025;-68
2023/07/27 09:32:50;;;;;;;16.45;5.75;;;;;;;16.41;100.00;100333.56;5065383;28;20025;-65
2023/07/27 09:35:17;;;;;;;11.93;4.72;;;;;;;16.43;100.00;100337.09;5061873;28;20025;-69
2023/07/27 09:37:44;;;;;;;14.18;5.00;;;;;;;16.51;100.00;100337.72;5064475;28;20111;-67
2023/07/27 09:40:14;;;;;;;11.25;4.28;;;;;;;16.43;100.00;100337.09;5062805;28;20024;-69
2023/07/27 09:42:41;;;;;;;13.55;4.55;;;;;;;16.42;100.00;100330.88;5064122;28;20021;-66
2023/07/27 09:45:06;;;;;;;13.38;4.85;;;;;;;16.45;100.00;100340.59;5063038;28;20569;-66
2023/07/27 09:47:32;;;;;;;13.63;4.80;;;;;;;16.48;100.00;100332.50;5063116;28;20048;-66
2023/07/27 09:49:59;;;;;;;14.88;5.30;;;;;;;16.54;100.00;100333.19;5064225;28;20025;-65
2023/07/27 09:52:26;;;;;;;15.10;4.90;;;;;;;16.52;100.00;100331.50;5061845;28;20029;-65
2023/07/27 09:54:54;;;;;;;12.82;4.63;;;;;;;16.58;100.00;100333.97;5065043;28;20028;-66
2023/07/27 09:57:20;;;;;;;10.80;4.30;;;;;;;16.53;100.00;100333.25;5061404;28;20384;-65
2023/07/27 09:59:46;;;;;;;11.25;4.40;;;;;;;16.44;100.00;100347.72;5064745;28;20028;-66
2023/07/27 10:02:13;;;;;;;10.05;4.18;;;;;;;16.45;100.00;100337.91;5062297;28;20036;-65
2023/07/27 10:04:38;;;;;;;11.95;4.53;;;;;;;16.40;100.00;100338.03;5062934;28;20036;-66
2023/07/27 10:07:05;;;;;;;12.18;4.75;;;;;;;16.45;100.00;100343.25;5058156;28;20116;-66
2023/07/27 10:09:30;;;;;;;13.32;4.85;;;;;;;16.65;100.00;100326.69;5054502;28;20048;-75
2023/07/27 10:11:59;;;;;;;14.20;5.10;;;;;;;16.64;100.00;100336.47;5063496;28;20021;-76
2023/07/27 10:14:26;;;;;;;11.85;4.45;;;;;;;16.82;100.00;100334.16;5060898;28;20021;-76
2023/07/27 10:17:02;;;;;;;13.32;5.00;;;;;;;16.74;100.00;100331.75;5062075;28;20025;-76
2023/07/27 10:19:52;;;;;;;12.40;4.90;;;;;;;16.80;100.00;100333.34;5059755;28;20053;-76
2023/07/27 10:22:19;;;;;;;11.63;4.63;;;;;;;16.81;100.00;100329.78;5047510;28;20508;-76
2023/07/27 10:24:58;;;;;;;11.68;4.30;;;;;;;16.76;100.00;100340.59;5054824;28;20104;-76
2023/07/27 10:27:24;;;;;;;10.88;4.20;;;;;;;16.83;100.00;100330.59;5060251;28;20029;-76
2023/07/27 10:30:11;;;;;;;10.98;4.10;;;;;;;16.77;100.00;100338.78;5064613;28;20033;-76
2023/07/27 10:32:37;;;;;;;8.60;4.00;;;;;;;16.72;100.00;100333.59;5061453;28;20033;-76
2023/07/27 10:35:07;;;;;;;12.40;4.32;;;;;;;16.84;100.00;100338.56;5063206;28;20028;-76
2023/07/27 10:37:55;;;;;;;11.38;4.15;;;;;;;16.70;100.00;100335.41;5062110;28;20025;-72
2023/07/27 10:40:29;;;;;;;11.13;4.18;;;;;;;16.63;100.00;100340.06;5057273;28;20104;-73
2023/07/27 10:42:56;;;;;;;12.43;4.22;;;;;;;16.73;100.00;100330.88;5057984;28;20116;-65
2023/07/27 10:45:26;;;;;;;12.57;4.45;;;;;;;16.68;100.00;100339.94;5064212;28;20491;-65
2023/07/27 10:47:56;;;;;;;14.23;4.78;;;;;;;16.69;100.00;100339.88;5056120;28;20029;-74
2023/07/27 10:50:21;;;;;;;12.90;4.28;;;;;;;16.66;100.00;100336.41;5056994;28;20033;-73
2023/07/27 10:52:51;;;;;;;13.10;4.40;;;;;;;16.63;100.00;100340.06;5064101;28;20070;-75
2023/07/27 10:55:17;;;;;;;10.93;4.20;;;;;;;16.73;100.00;100335.31;5060913;28;20025;-75
2023/07/27 10:57:42;;;;;;;11.13;4.30;;;;;;;16.77;100.00;100341.47;5060921;28;20036;-71
2023/07/27 11:00:09;;;;;;;13.05;4.20;;;;;;;16.80;100.00;100333.34;5060848;28;20068;-75
2023/07/27 11:02:36;;;;;;;11.80;4.20;;;;;;;16.76;100.00;100339.69;5063227;28;20040;-72
2023/07/27 11:05:07;;;;;;;10.75;4.20;;;;;;;16.80;100.00;100346.69;5060529;28;20041;-65